Language selection

Features

My Weather Profile Weather Topics  | 

Southeastern Grand Banks: Past 24 Hour Conditions

 

East Chedabucto Bay - 44488

04:00 PM ADT 11 April 2021Buoy position: 45.45N 60.95W
Disclaimer

This table is a summary of hourly weather conditions for the past 24 hours.
Please note that these observations might not always be representative of weather conditions over their associated marine area.

Date / Time
(ADT)
Wind(knots) Wave height(m) Wave period(s) Pressure(kPa) Air tempC) Water tempC)
11 April 2021
16:00 NW 17 gust 22 0.9 5.5 100.2 4 3
15:00 NW 19 gust 23 0.8 5.4 100.3 3 3
14:00 WNW 20 gust 25 0.9 5.8 100.3 3 3
13:00 WNW 21 gust 27 0.8 5.7 100.3 3 3
12:00 WNW 18 gust 23 0.7 5.4 100.4 3 3
11:00 NW 18 gust 23 0.8 6.8 100.4 3 3
10:00 WNW 17 gust 19 0.7 6.3 100.4 2 3
9:00 NW 16 gust 21 0.8 8.3 100.5 1 3
8:00 NW 17 gust 22 0.7 6.3 100.6 1 3
7:00 WNW 15 gust 18 0.8 6.8 100.7 1 3
6:00 NW 14 gust 18 0.8 7.1 100.7 1 3
5:00 NW 13 gust 16 0.8 9.3 100.7 1 3
4:00 NW 13 gust 15 0.7 8.4 100.7 0 3
3:00 WNW 13 gust 16 0.8 8.8 100.8 0 3
2:00 WNW 15 gust 18 0.9 8.8 100.8 0 3
1:00 NW 16 gust 22 1.0 8.5 100.9 0 3
0:00 NW 16 gust 20 1.0 9.1 101.0 0 3
10 April 2021
23:00 NNW 18 gust 23 1.0 8.8 101.1 1 3
22:00 NNW 17 gust 21 0.9 8.4 101.1 1 3
21:00 NNW 17 gust 21 0.9 8.0 101.1 1 3
20:00 NNW 18 gust 22 1.0 7.8 101.1 1 3
19:00 NNW 16 gust 21 1.0 6.9 101.1 1 3
18:00 NNW 18 gust 25 1.0 6.5 101.1 2 3
17:00 NNW 20 gust 25 1.1 5.5 101.1 3 4
16:00 N 17 gust 24 1.0 6.0 101.1 4 4

Zoom-in to make a selection

Map of Atlantic - Newfoundland marine weather areas Banquereau - 44139 East Chedabucto Bay - 44488 West Chedabucto Bay - 44489 Blanc-Sablon Airport Cap Whittle Chevery Natashquan Airport Heath Point Îles de la Madeleine Airport Miscou Island Eskasoni (First Nations) Grand Étang Ingonish Beach North Mountain St.Paul Island J.A. Douglas McCurdy Sydney Airport Charlottetown Airport East Point North Cape Argentia Bonavista Burgeo Cape Race Corner Brook Daniel's Harbour Englee Ferolle Point La Scie Port aux Basques Rocky Harbour Sagona Island St. Anthony Airport St. John's Int'l Airport St. Lawrence Stephenville Airport Twillingate Winterland Branch Hill Wreckhouse Grates Cove Pool's Island Marticot Island Long Pond Cartwright Airport Mary's Harbour
Legend:
buoy Buoy
land station Land Station

Atlantic - Newfoundland Area

Another Region

What we are doing

Date modified: